sensor_id;sensor_type;location;lat;lon;timestamp;P1;durP1;ratioP1;P2;durP2;ratioP2
9970;SDS011;5026;51.494;11.974;2023-01-19T00:01:29;11.57;;;7.00;;
9970;SDS011;5026;51.494;11.974;2023-01-19T00:03:57;11.23;;;6.77;;
9970;SDS011;5026;51.494;11.974;2023-01-19T00:06:24;13.43;;;6.80;;
9970;SDS011;5026;51.494;11.974;2023-01-19T00:08:51;16.40;;;6.90;;
9970;SDS011;5026;51.494;11.974;2023-01-19T00:11:18;13.97;;;6.73;;
9970;SDS011;5026;51.494;11.974;2023-01-19T00:13:45;12.27;;;7.30;;
9970;SDS011;5026;51.494;11.974;2023-01-19T00:16:14;14.13;;;6.73;;
9970;SDS011;5026;51.494;11.974;2023-01-19T00:18:42;9.97;;;6.43;;
9970;SDS011;5026;51.494;11.974;2023-01-19T00:21:11;14.00;;;7.17;;
9970;SDS011;5026;51.494;11.974;2023-01-19T00:23:38;14.70;;;7.80;;
9970;SDS011;5026;51.494;11.974;2023-01-19T00:26:06;14.20;;;7.87;;
9970;SDS011;5026;51.494;11.974;2023-01-19T00:28:34;11.13;;;6.97;;
9970;SDS011;5026;51.494;11.974;2023-01-19T00:31:01;12.43;;;6.77;;
9970;SDS011;5026;51.494;11.974;2023-01-19T00:33:28;10.83;;;6.57;;
9970;SDS011;5026;51.494;11.974;2023-01-19T00:35:55;14.47;;;7.40;;
9970;SDS011;5026;51.494;11.974;2023-01-19T00:38:23;12.63;;;7.33;;
9970;SDS011;5026;51.494;11.974;2023-01-19T00:40:50;9.53;;;7.03;;
9970;SDS011;5026;51.494;11.974;2023-01-19T00:43:17;12.60;;;7.00;;
9970;SDS011;5026;51.494;11.974;2023-01-19T00:45:43;11.63;;;7.00;;
9970;SDS011;5026;51.494;11.974;2023-01-19T00:50:37;14.10;;;7.60;;
9970;SDS011;5026;51.494;11.974;2023-01-19T00:53:04;18.23;;;7.87;;
9970;SDS011;5026;51.494;11.974;2023-01-19T00:55:32;12.47;;;6.97;;
9970;SDS011;5026;51.494;11.974;2023-01-19T00:57:59;12.80;;;7.47;;
9970;SDS011;5026;51.494;11.974;2023-01-19T01:00:26;13.87;;;7.63;;
9970;SDS011;5026;51.494;11.974;2023-01-19T01:02:54;14.90;;;7.70;;
9970;SDS011;5026;51.494;11.974;2023-01-19T01:05:21;14.73;;;7.37;;
9970;SDS011;5026;51.494;11.974;2023-01-19T01:07:48;12.50;;;6.83;;
9970;SDS011;5026;51.494;11.974;2023-01-19T01:10:16;16.07;;;8.20;;
9970;SDS011;5026;51.494;11.974;2023-01-19T01:12:46;15.30;;;7.40;;
9970;SDS011;5026;51.494;11.974;2023-01-19T01:15:14;17.03;;;7.50;;
9970;SDS011;5026;51.494;11.974;2023-01-19T01:17:42;11.40;;;7.00;;
9970;SDS011;5026;51.494;11.974;2023-01-19T01:20:14;14.07;;;7.30;;
9970;SDS011;5026;51.494;11.974;2023-01-19T01:22:43;13.27;;;6.63;;
9970;SDS011;5026;51.494;11.974;2023-01-19T01:25:11;13.60;;;8.03;;
9970;SDS011;5026;51.494;11.974;2023-01-19T01:27:39;14.13;;;6.80;;
9970;SDS011;5026;51.494;11.974;2023-01-19T01:30:09;13.33;;;7.20;;
9970;SDS011;5026;51.494;11.974;2023-01-19T01:32:38;13.10;;;7.27;;
9970;SDS011;5026;51.494;11.974;2023-01-19T01:35:05;13.80;;;7.37;;
9970;SDS011;5026;51.494;11.974;2023-01-19T01:37:34;18.90;;;7.70;;
9970;SDS011;5026;51.494;11.974;2023-01-19T01:40:01;10.63;;;6.63;;
9970;SDS011;5026;51.494;11.974;2023-01-19T01:42:29;12.70;;;7.27;;
9970;SDS011;5026;51.494;11.974;2023-01-19T01:44:57;13.03;;;6.80;;
9970;SDS011;5026;51.494;11.974;2023-01-19T01:47:29;16.63;;;7.43;;
9970;SDS011;5026;51.494;11.974;2023-01-19T01:50:01;10.13;;;7.03;;
9970;SDS011;5026;51.494;11.974;2023-01-19T01:52:34;14.60;;;7.80;;
9970;SDS011;5026;51.494;11.974;2023-01-19T01:55:06;15.30;;;8.00;;
9970;SDS011;5026;51.494;11.974;2023-01-19T01:57:36;19.17;;;8.33;;
9970;SDS011;5026;51.494;11.974;2023-01-19T02:00:05;14.10;;;8.87;;
9970;SDS011;5026;51.494;11.974;2023-01-19T02:02:34;18.70;;;8.70;;
9970;SDS011;5026;51.494;11.974;2023-01-19T02:05:16;15.13;;;8.27;;
9970;SDS011;5026;51.494;11.974;2023-01-19T02:07:47;15.47;;;8.17;;
9970;SDS011;5026;51.494;11.974;2023-01-19T02:10:34;12.50;;;7.43;;
9970;SDS011;5026;51.494;11.974;2023-01-19T02:13:19;11.77;;;7.33;;
9970;SDS011;5026;51.494;11.974;2023-01-19T02:15:47;12.60;;;6.90;;
9970;SDS011;5026;51.494;11.974;2023-01-19T02:18:18;15.37;;;7.43;;
9970;SDS011;5026;51.494;11.974;2023-01-19T02:20:49;11.67;;;6.70;;
9970;SDS011;5026;51.494;11.974;2023-01-19T02:23:30;14.67;;;6.90;;
9970;SDS011;5026;51.494;11.974;2023-01-19T02:26:03;15.63;;;6.87;;
9970;SDS011;5026;51.494;11.974;2023-01-19T02:28:31;11.77;;;6.60;;
9970;SDS011;5026;51.494;11.974;2023-01-19T02:30:58;12.13;;;6.90;;
9970;SDS011;5026;51.494;11.974;2023-01-19T02:33:25;13.40;;;6.80;;
9970;SDS011;5026;51.494;11.974;2023-01-19T02:35:53;18.47;;;7.57;;
9970;SDS011;5026;51.494;11.974;2023-01-19T02:38:22;12.37;;;6.57;;
9970;SDS011;5026;51.494;11.974;2023-01-19T02:40:52;11.13;;;6.60;;
9970;SDS011;5026;51.494;11.974;2023-01-19T02:43:20;10.83;;;6.53;;
9970;SDS011;5026;51.494;11.974;2023-01-19T02:45:49;10.57;;;6.87;;
9970;SDS011;5026;51.494;11.974;2023-01-19T02:48:16;12.67;;;6.87;;
9970;SDS011;5026;51.494;11.974;2023-01-19T02:50:45;11.07;;;6.50;;
9970;SDS011;5026;51.494;11.974;2023-01-19T02:53:28;13.20;;;6.63;;
9970;SDS011;5026;51.494;11.974;2023-01-19T02:56:20;11.33;;;6.57;;
9970;SDS011;5026;51.494;11.974;2023-01-19T02:59:00;12.43;;;6.47;;
9970;SDS011;5026;51.494;11.974;2023-01-19T03:01:33;10.80;;;6.40;;
9970;SDS011;5026;51.494;11.974;2023-01-19T03:04:10;12.07;;;6.57;;
9970;SDS011;5026;51.494;11.974;2023-01-19T03:06:47;16.50;;;6.80;;
9970;SDS011;5026;51.494;11.974;2023-01-19T03:09:20;12.03;;;7.20;;
9970;SDS011;5026;51.494;11.974;2023-01-19T03:11:58;10.23;;;6.17;;
9970;SDS011;5026;51.494;11.974;2023-01-19T03:14:29;14.87;;;6.47;;
9970;SDS011;5026;51.494;11.974;2023-01-19T03:17:00;13.33;;;6.47;;
9970;SDS011;5026;51.494;11.974;2023-01-19T03:19:30;12.10;;;5.80;;
9970;SDS011;5026;51.494;11.974;2023-01-19T03:22:01;11.37;;;6.00;;
9970;SDS011;5026;51.494;11.974;2023-01-19T03:24:32;11.17;;;6.27;;
9970;SDS011;5026;51.494;11.974;2023-01-19T03:27:06;11.77;;;5.90;;
9970;SDS011;5026;51.494;11.974;2023-01-19T03:29:36;12.57;;;6.27;;
9970;SDS011;5026;51.494;11.974;2023-01-19T03:32:08;11.97;;;6.23;;
9970;SDS011;5026;51.494;11.974;2023-01-19T03:34:37;10.07;;;6.17;;
9970;SDS011;5026;51.494;11.974;2023-01-19T03:37:06;11.40;;;5.63;;
9970;SDS011;5026;51.494;11.974;2023-01-19T03:39:35;13.47;;;6.53;;
9970;SDS011;5026;51.494;11.974;2023-01-19T03:42:03;9.67;;;5.10;;
9970;SDS011;5026;51.494;11.974;2023-01-19T03:44:36;12.20;;;5.40;;
9970;SDS011;5026;51.494;11.974;2023-01-19T03:47:04;13.10;;;6.17;;
9970;SDS011;5026;51.494;11.974;2023-01-19T03:49:34;9.93;;;5.83;;
9970;SDS011;5026;51.494;11.974;2023-01-19T03:52:03;8.83;;;5.37;;
9970;SDS011;5026;51.494;11.974;2023-01-19T03:54:30;13.07;;;5.87;;
9970;SDS011;5026;51.494;11.974;2023-01-19T03:56:57;13.53;;;5.77;;
9970;SDS011;5026;51.494;11.974;2023-01-19T03:59:26;8.23;;;5.10;;
9970;SDS011;5026;51.494;11.974;2023-01-19T04:01:53;8.17;;;5.50;;
9970;SDS011;5026;51.494;11.974;2023-01-19T04:04:20;12.97;;;6.03;;
9970;SDS011;5026;51.494;11.974;2023-01-19T04:06:46;12.67;;;6.23;;
9970;SDS011;5026;51.494;11.974;2023-01-19T04:09:13;8.83;;;6.03;;
9970;SDS011;5026;51.494;11.974;2023-01-19T04:11:40;12.73;;;6.70;;
9970;SDS011;5026;51.494;11.974;2023-01-19T04:14:07;12.63;;;6.37;;
9970;SDS011;5026;51.494;11.974;2023-01-19T04:16:35;10.37;;;5.90;;
9970;SDS011;5026;51.494;11.974;2023-01-19T04:19:02;14.07;;;5.90;;
9970;SDS011;5026;51.494;11.974;2023-01-19T04:21:29;11.37;;;6.60;;
9970;SDS011;5026;51.494;11.974;2023-01-19T04:23:56;11.57;;;6.00;;
9970;SDS011;5026;51.494;11.974;2023-01-19T04:26:23;16.17;;;6.30;;
9970;SDS011;5026;51.494;11.974;2023-01-19T04:28:50;10.17;;;5.93;;
9970;SDS011;5026;51.494;11.974;2023-01-19T04:31:17;9.87;;;5.63;;
9970;SDS011;5026;51.494;11.974;2023-01-19T04:33:45;10.50;;;5.33;;
9970;SDS011;5026;51.494;11.974;2023-01-19T04:36:12;10.13;;;5.10;;
9970;SDS011;5026;51.494;11.974;2023-01-19T04:38:39;9.57;;;4.83;;
9970;SDS011;5026;51.494;11.974;2023-01-19T04:41:06;7.03;;;4.63;;
9970;SDS011;5026;51.494;11.974;2023-01-19T04:43:34;8.47;;;4.63;;
9970;SDS011;5026;51.494;11.974;2023-01-19T04:46:01;7.60;;;4.23;;
9970;SDS011;5026;51.494;11.974;2023-01-19T04:48:27;9.23;;;4.80;;
9970;SDS011;5026;51.494;11.974;2023-01-19T04:50:56;6.53;;;3.57;;
9970;SDS011;5026;51.494;11.974;2023-01-19T04:53:23;12.87;;;5.43;;
9970;SDS011;5026;51.494;11.974;2023-01-19T04:55:51;9.77;;;5.40;;
9970;SDS011;5026;51.494;11.974;2023-01-19T04:58:19;5.07;;;3.83;;
9970;SDS011;5026;51.494;11.974;2023-01-19T05:00:46;8.13;;;4.90;;
9970;SDS011;5026;51.494;11.974;2023-01-19T05:03:15;8.43;;;5.50;;
9970;SDS011;5026;51.494;11.974;2023-01-19T05:05:43;7.27;;;4.43;;
9970;SDS011;5026;51.494;11.974;2023-01-19T05:08:11;9.57;;;4.70;;
9970;SDS011;5026;51.494;11.974;2023-01-19T05:10:38;6.23;;;3.47;;
9970;SDS011;5026;51.494;11.974;2023-01-19T05:13:05;8.30;;;4.57;;
9970;SDS011;5026;51.494;11.974;2023-01-19T05:15:32;6.60;;;3.60;;
9970;SDS011;5026;51.494;11.974;2023-01-19T05:17:59;9.27;;;4.70;;
9970;SDS011;5026;51.494;11.974;2023-01-19T05:20:26;7.53;;;4.33;;
9970;SDS011;5026;51.494;11.974;2023-01-19T05:22:53;6.97;;;4.00;;
9970;SDS011;5026;51.494;11.974;2023-01-19T05:25:21;9.40;;;4.77;;
9970;SDS011;5026;51.494;11.974;2023-01-19T05:27:48;6.33;;;4.43;;
9970;SDS011;5026;51.494;11.974;2023-01-19T05:30:16;8.43;;;4.47;;
9970;SDS011;5026;51.494;11.974;2023-01-19T05:32:43;7.20;;;2.70;;
9970;SDS011;5026;51.494;11.974;2023-01-19T05:35:10;5.60;;;3.37;;
9970;SDS011;5026;51.494;11.974;2023-01-19T05:37:39;7.33;;;3.13;;
9970;SDS011;5026;51.494;11.974;2023-01-19T05:40:07;5.27;;;3.30;;
9970;SDS011;5026;51.494;11.974;2023-01-19T05:42:36;6.20;;;3.57;;
9970;SDS011;5026;51.494;11.974;2023-01-19T05:45:03;8.87;;;4.17;;
9970;SDS011;5026;51.494;11.974;2023-01-19T05:47:31;7.90;;;4.30;;
9970;SDS011;5026;51.494;11.974;2023-01-19T05:49:58;5.73;;;3.63;;
9970;SDS011;5026;51.494;11.974;2023-01-19T05:52:25;7.93;;;4.07;;
9970;SDS011;5026;51.494;11.974;2023-01-19T05:54:52;9.57;;;4.63;;
9970;SDS011;5026;51.494;11.974;2023-01-19T05:57:19;8.73;;;4.30;;
9970;SDS011;5026;51.494;11.974;2023-01-19T05:59:47;9.33;;;3.97;;
9970;SDS011;5026;51.494;11.974;2023-01-19T06:02:14;9.43;;;4.70;;
9970;SDS011;5026;51.494;11.974;2023-01-19T06:04:41;8.67;;;4.93;;
9970;SDS011;5026;51.494;11.974;2023-01-19T06:07:08;8.37;;;5.10;;
9970;SDS011;5026;51.494;11.974;2023-01-19T06:09:35;8.97;;;4.77;;
9970;SDS011;5026;51.494;11.974;2023-01-19T06:12:02;10.80;;;3.80;;
9970;SDS011;5026;51.494;11.974;2023-01-19T06:14:29;9.40;;;4.23;;
9970;SDS011;5026;51.494;11.974;2023-01-19T06:16:58;3.97;;;3.37;;
9970;SDS011;5026;51.494;11.974;2023-01-19T06:19:25;10.77;;;4.63;;
9970;SDS011;5026;51.494;11.974;2023-01-19T06:21:52;6.83;;;4.23;;
9970;SDS011;5026;51.494;11.974;2023-01-19T06:24:19;7.83;;;4.37;;
9970;SDS011;5026;51.494;11.974;2023-01-19T06:26:46;7.30;;;4.20;;
9970;SDS011;5026;51.494;11.974;2023-01-19T06:29:12;8.50;;;3.90;;
9970;SDS011;5026;51.494;11.974;2023-01-19T06:31:40;6.50;;;4.27;;
9970;SDS011;5026;51.494;11.974;2023-01-19T06:34:08;7.73;;;4.70;;
9970;SDS011;5026;51.494;11.974;2023-01-19T06:36:36;9.10;;;5.03;;
9970;SDS011;5026;51.494;11.974;2023-01-19T06:39:03;9.20;;;5.00;;
9970;SDS011;5026;51.494;11.974;2023-01-19T06:41:30;10.33;;;4.67;;
9970;SDS011;5026;51.494;11.974;2023-01-19T06:43:57;10.70;;;5.17;;
9970;SDS011;5026;51.494;11.974;2023-01-19T06:46:25;10.00;;;4.70;;
9970;SDS011;5026;51.494;11.974;2023-01-19T06:48:52;9.03;;;4.63;;
9970;SDS011;5026;51.494;11.974;2023-01-19T06:51:21;10.83;;;4.37;;
9970;SDS011;5026;51.494;11.974;2023-01-19T06:53:48;9.63;;;5.40;;
9970;SDS011;5026;51.494;11.974;2023-01-19T06:56:15;8.67;;;5.00;;
9970;SDS011;5026;51.494;11.974;2023-01-19T06:58:42;10.10;;;5.50;;
9970;SDS011;5026;51.494;11.974;2023-01-19T07:01:09;13.43;;;5.70;;
9970;SDS011;5026;51.494;11.974;2023-01-19T07:03:36;8.93;;;5.53;;
9970;SDS011;5026;51.494;11.974;2023-01-19T07:06:03;8.50;;;5.37;;
9970;SDS011;5026;51.494;11.974;2023-01-19T07:08:33;8.17;;;4.90;;
9970;SDS011;5026;51.494;11.974;2023-01-19T07:11:01;11.00;;;5.90;;
9970;SDS011;5026;51.494;11.974;2023-01-19T07:13:30;20.03;;;5.83;;
9970;SDS011;5026;51.494;11.974;2023-01-19T07:15:57;12.57;;;5.47;;
9970;SDS011;5026;51.494;11.974;2023-01-19T07:18:24;12.10;;;5.73;;
9970;SDS011;5026;51.494;11.974;2023-01-19T07:20:51;9.43;;;5.57;;
9970;SDS011;5026;51.494;11.974;2023-01-19T07:23:18;17.73;;;6.50;;
9970;SDS011;5026;51.494;11.974;2023-01-19T07:25:46;10.37;;;5.80;;
9970;SDS011;5026;51.494;11.974;2023-01-19T07:28:13;14.17;;;6.27;;
9970;SDS011;5026;51.494;11.974;2023-01-19T07:30:40;14.33;;;6.50;;
9970;SDS011;5026;51.494;11.974;2023-01-19T07:33:07;12.30;;;5.87;;
9970;SDS011;5026;51.494;11.974;2023-01-19T07:35:34;9.97;;;4.80;;
9970;SDS011;5026;51.494;11.974;2023-01-19T07:38:01;12.03;;;5.73;;
9970;SDS011;5026;51.494;11.974;2023-01-19T07:40:29;12.63;;;5.90;;
9970;SDS011;5026;51.494;11.974;2023-01-19T07:43:00;11.13;;;5.83;;
9970;SDS011;5026;51.494;11.974;2023-01-19T07:45:27;8.27;;;5.40;;
9970;SDS011;5026;51.494;11.974;2023-01-19T07:47:54;27.73;;;6.43;;
9970;SDS011;5026;51.494;11.974;2023-01-19T07:50:21;13.23;;;6.43;;
9970;SDS011;5026;51.494;11.974;2023-01-19T07:52:49;13.13;;;6.67;;
9970;SDS011;5026;51.494;11.974;2023-01-19T07:55:17;11.87;;;6.23;;
9970;SDS011;5026;51.494;11.974;2023-01-19T07:57:46;14.43;;;5.60;;
9970;SDS011;5026;51.494;11.974;2023-01-19T08:00:17;9.13;;;5.00;;
9970;SDS011;5026;51.494;11.974;2023-01-19T08:02:46;13.50;;;5.80;;
9970;SDS011;5026;51.494;11.974;2023-01-19T08:05:14;13.67;;;5.83;;
9970;SDS011;5026;51.494;11.974;2023-01-19T08:07:41;9.80;;;5.80;;
9970;SDS011;5026;51.494;11.974;2023-01-19T08:10:09;9.67;;;5.67;;
9970;SDS011;5026;51.494;11.974;2023-01-19T08:12:37;10.83;;;5.80;;
9970;SDS011;5026;51.494;11.974;2023-01-19T08:15:04;11.33;;;5.60;;
9970;SDS011;5026;51.494;11.974;2023-01-19T08:17:34;13.07;;;6.17;;
9970;SDS011;5026;51.494;11.974;2023-01-19T08:20:01;11.67;;;6.20;;
9970;SDS011;5026;51.494;11.974;2023-01-19T08:22:28;12.30;;;5.70;;
9970;SDS011;5026;51.494;11.974;2023-01-19T08:24:55;11.53;;;5.40;;
9970;SDS011;5026;51.494;11.974;2023-01-19T08:27:22;9.47;;;5.57;;
9970;SDS011;5026;51.494;11.974;2023-01-19T08:29:49;10.93;;;6.00;;
9970;SDS011;5026;51.494;11.974;2023-01-19T08:32:18;9.20;;;5.23;;
9970;SDS011;5026;51.494;11.974;2023-01-19T08:34:47;10.13;;;6.40;;
9970;SDS011;5026;51.494;11.974;2023-01-19T08:37:13;10.67;;;5.47;;
9970;SDS011;5026;51.494;11.974;2023-01-19T08:39:40;9.27;;;5.60;;
9970;SDS011;5026;51.494;11.974;2023-01-19T08:42:07;8.97;;;4.67;;
9970;SDS011;5026;51.494;11.974;2023-01-19T08:44:34;9.57;;;5.33;;
9970;SDS011;5026;51.494;11.974;2023-01-19T08:47:01;8.77;;;4.70;;
9970;SDS011;5026;51.494;11.974;2023-01-19T08:49:28;12.73;;;5.53;;
9970;SDS011;5026;51.494;11.974;2023-01-19T08:51:56;15.87;;;5.50;;
9970;SDS011;5026;51.494;11.974;2023-01-19T08:54:23;11.20;;;5.10;;
9970;SDS011;5026;51.494;11.974;2023-01-19T08:56:50;8.50;;;5.17;;
9970;SDS011;5026;51.494;11.974;2023-01-19T08:59:17;14.27;;;5.27;;
9970;SDS011;5026;51.494;11.974;2023-01-19T09:01:44;10.70;;;5.50;;
9970;SDS011;5026;51.494;11.974;2023-01-19T09:04:11;8.63;;;4.63;;
9970;SDS011;5026;51.494;11.974;2023-01-19T09:06:38;9.10;;;5.40;;
9970;SDS011;5026;51.494;11.974;2023-01-19T09:09:06;8.43;;;5.00;;
9970;SDS011;5026;51.494;11.974;2023-01-19T09:11:33;9.27;;;4.80;;
9970;SDS011;5026;51.494;11.974;2023-01-19T09:14:00;11.30;;;5.07;;
9970;SDS011;5026;51.494;11.974;2023-01-19T09:16:27;10.10;;;5.50;;
9970;SDS011;5026;51.494;11.974;2023-01-19T09:18:54;10.53;;;5.80;;
9970;SDS011;5026;51.494;11.974;2023-01-19T09:21:21;9.70;;;5.50;;
9970;SDS011;5026;51.494;11.974;2023-01-19T09:23:48;13.23;;;5.47;;
9970;SDS011;5026;51.494;11.974;2023-01-19T09:26:16;11.17;;;5.20;;
9970;SDS011;5026;51.494;11.974;2023-01-19T09:28:43;8.63;;;4.63;;
9970;SDS011;5026;51.494;11.974;2023-01-19T09:31:10;6.97;;;4.77;;
9970;SDS011;5026;51.494;11.974;2023-01-19T09:33:37;9.17;;;4.93;;
9970;SDS011;5026;51.494;11.974;2023-01-19T09:36:04;10.13;;;5.50;;
9970;SDS011;5026;51.494;11.974;2023-01-19T09:38:31;7.73;;;4.63;;
9970;SDS011;5026;51.494;11.974;2023-01-19T09:40:59;8.23;;;5.27;;
9970;SDS011;5026;51.494;11.974;2023-01-19T09:43:34;8.67;;;5.80;;
9970;SDS011;5026;51.494;11.974;2023-01-19T09:46:05;9.17;;;5.37;;
9970;SDS011;5026;51.494;11.974;2023-01-19T09:48:41;7.97;;;4.83;;
9970;SDS011;5026;51.494;11.974;2023-01-19T09:51:12;7.17;;;5.23;;
9970;SDS011;5026;51.494;11.974;2023-01-19T09:53:44;7.27;;;5.27;;
9970;SDS011;5026;51.494;11.974;2023-01-19T09:56:20;9.20;;;4.73;;
9970;SDS011;5026;51.494;11.974;2023-01-19T09:58:49;8.47;;;4.73;;
9970;SDS011;5026;51.494;11.974;2023-01-19T10:01:21;8.80;;;5.90;;
9970;SDS011;5026;51.494;11.974;2023-01-19T10:04:07;7.97;;;4.97;;
9970;SDS011;5026;51.494;11.974;2023-01-19T10:07:03;9.70;;;6.13;;
9970;SDS011;5026;51.494;11.974;2023-01-19T10:09:36;9.17;;;5.47;;
9970;SDS011;5026;51.494;11.974;2023-01-19T10:12:20;8.33;;;5.80;;
9970;SDS011;5026;51.494;11.974;2023-01-19T10:14:59;9.50;;;4.67;;
9970;SDS011;5026;51.494;11.974;2023-01-19T10:17:37;8.67;;;4.93;;
9970;SDS011;5026;51.494;11.974;2023-01-19T10:20:13;12.13;;;5.03;;
9970;SDS011;5026;51.494;11.974;2023-01-19T10:22:43;8.90;;;5.53;;
9970;SDS011;5026;51.494;11.974;2023-01-19T10:25:14;11.60;;;5.00;;
9970;SDS011;5026;51.494;11.974;2023-01-19T10:27:44;8.27;;;5.33;;
9970;SDS011;5026;51.494;11.974;2023-01-19T10:30:16;6.60;;;5.23;;
9970;SDS011;5026;51.494;11.974;2023-01-19T10:32:47;10.50;;;5.07;;
9970;SDS011;5026;51.494;11.974;2023-01-19T10:35:15;8.30;;;4.77;;
9970;SDS011;5026;51.494;11.974;2023-01-19T10:37:48;8.27;;;5.20;;
9970;SDS011;5026;51.494;11.974;2023-01-19T10:40:18;6.97;;;4.50;;
9970;SDS011;5026;51.494;11.974;2023-01-19T10:42:53;7.73;;;4.50;;
9970;SDS011;5026;51.494;11.974;2023-01-19T10:45:24;7.73;;;4.70;;
9970;SDS011;5026;51.494;11.974;2023-01-19T10:47:54;9.20;;;4.70;;
9970;SDS011;5026;51.494;11.974;2023-01-19T10:50:24;9.47;;;5.10;;
9970;SDS011;5026;51.494;11.974;2023-01-19T10:52:54;10.60;;;5.03;;
9970;SDS011;5026;51.494;11.974;2023-01-19T10:55:23;9.93;;;5.00;;
9970;SDS011;5026;51.494;11.974;2023-01-19T10:57:53;9.20;;;5.27;;
9970;SDS011;5026;51.494;11.974;2023-01-19T11:00:35;8.60;;;4.97;;
9970;SDS011;5026;51.494;11.974;2023-01-19T11:03:03;9.43;;;5.10;;
9970;SDS011;5026;51.494;11.974;2023-01-19T11:05:31;8.37;;;5.00;;
9970;SDS011;5026;51.494;11.974;2023-01-19T11:07:59;8.60;;;5.07;;
9970;SDS011;5026;51.494;11.974;2023-01-19T11:10:26;7.20;;;5.00;;
9970;SDS011;5026;51.494;11.974;2023-01-19T11:12:56;9.10;;;5.33;;
9970;SDS011;5026;51.494;11.974;2023-01-19T11:15:28;6.87;;;4.47;;
9970;SDS011;5026;51.494;11.974;2023-01-19T11:17:58;9.00;;;5.13;;
9970;SDS011;5026;51.494;11.974;2023-01-19T11:20:28;6.60;;;5.10;;
9970;SDS011;5026;51.494;11.974;2023-01-19T11:23:05;8.00;;;4.80;;
9970;SDS011;5026;51.494;11.974;2023-01-19T11:25:44;6.37;;;4.60;;
9970;SDS011;5026;51.494;11.974;2023-01-19T11:28:15;7.50;;;4.93;;
9970;SDS011;5026;51.494;11.974;2023-01-19T11:30:52;7.17;;;4.90;;
9970;SDS011;5026;51.494;11.974;2023-01-19T11:33:27;6.80;;;4.90;;
9970;SDS011;5026;51.494;11.974;2023-01-19T11:36:03;6.37;;;4.70;;
9970;SDS011;5026;51.494;11.974;2023-01-19T11:38:31;7.10;;;5.40;;
9970;SDS011;5026;51.494;11.974;2023-01-19T11:41:07;6.73;;;4.63;;
9970;SDS011;5026;51.494;11.974;2023-01-19T11:43:41;9.17;;;5.30;;
9970;SDS011;5026;51.494;11.974;2023-01-19T11:46:09;7.80;;;5.43;;
9970;SDS011;5026;51.494;11.974;2023-01-19T11:48:40;9.43;;;4.67;;
9970;SDS011;5026;51.494;11.974;2023-01-19T11:51:12;6.30;;;4.83;;
9970;SDS011;5026;51.494;11.974;2023-01-19T11:53:41;8.03;;;5.07;;
9970;SDS011;5026;51.494;11.974;2023-01-19T11:56:12;8.63;;;5.30;;
9970;SDS011;5026;51.494;11.974;2023-01-19T11:58:40;7.73;;;4.83;;
9970;SDS011;5026;51.494;11.974;2023-01-19T12:01:12;7.47;;;4.40;;
9970;SDS011;5026;51.494;11.974;2023-01-19T12:03:48;7.30;;;5.00;;
9970;SDS011;5026;51.494;11.974;2023-01-19T12:06:21;6.07;;;4.23;;
9970;SDS011;5026;51.494;11.974;2023-01-19T12:08:52;7.50;;;4.57;;
9970;SDS011;5026;51.494;11.974;2023-01-19T12:11:24;8.53;;;5.23;;
9970;SDS011;5026;51.494;11.974;2023-01-19T12:13:55;9.43;;;4.60;;
9970;SDS011;5026;51.494;11.974;2023-01-19T12:16:23;5.00;;;4.00;;
9970;SDS011;5026;51.494;11.974;2023-01-19T12:18:57;7.23;;;4.83;;
9970;SDS011;5026;51.494;11.974;2023-01-19T12:21:26;5.70;;;4.43;;
9970;SDS011;5026;51.494;11.974;2023-01-19T12:23:55;6.90;;;4.70;;
9970;SDS011;5026;51.494;11.974;2023-01-19T12:26:32;8.77;;;4.60;;
9970;SDS011;5026;51.494;11.974;2023-01-19T12:29:05;5.93;;;4.50;;
9970;SDS011;5026;51.494;11.974;2023-01-19T12:31:37;7.43;;;4.47;;
9970;SDS011;5026;51.494;11.974;2023-01-19T12:36:58;6.50;;;4.47;;
9970;SDS011;5026;51.494;11.974;2023-01-19T12:39:28;9.60;;;4.97;;
9970;SDS011;5026;51.494;11.974;2023-01-19T12:42:03;7.83;;;4.40;;
9970;SDS011;5026;51.494;11.974;2023-01-19T12:44:32;10.23;;;4.63;;
9970;SDS011;5026;51.494;11.974;2023-01-19T12:49:46;9.40;;;5.13;;
9970;SDS011;5026;51.494;11.974;2023-01-19T12:52:20;7.50;;;4.77;;
9970;SDS011;5026;51.494;11.974;2023-01-19T12:54:54;7.47;;;4.83;;
9970;SDS011;5026;51.494;11.974;2023-01-19T12:57:26;7.67;;;4.83;;
9970;SDS011;5026;51.494;11.974;2023-01-19T12:59:56;7.10;;;4.73;;
9970;SDS011;5026;51.494;11.974;2023-01-19T13:05:13;7.63;;;4.73;;
9970;SDS011;5026;51.494;11.974;2023-01-19T13:16:51;7.93;;;4.73;;
9970;SDS011;5026;51.494;11.974;2023-01-19T13:19:29;4.63;;;3.77;;
9970;SDS011;5026;51.494;11.974;2023-01-19T13:25:12;5.43;;;4.40;;
9970;SDS011;5026;51.494;11.974;2023-01-19T13:27:52;4.30;;;3.87;;
9970;SDS011;5026;51.494;11.974;2023-01-19T13:30:20;7.60;;;3.60;;
9970;SDS011;5026;51.494;11.974;2023-01-19T13:32:51;4.90;;;3.93;;
9970;SDS011;5026;51.494;11.974;2023-01-19T13:35:18;5.10;;;3.60;;
9970;SDS011;5026;51.494;11.974;2023-01-19T13:37:45;5.47;;;3.80;;
9970;SDS011;5026;51.494;11.974;2023-01-19T13:40:19;9.00;;;4.27;;
9970;SDS011;5026;51.494;11.974;2023-01-19T13:42:48;5.67;;;3.70;;
9970;SDS011;5026;51.494;11.974;2023-01-19T13:45:23;6.47;;;4.07;;
9970;SDS011;5026;51.494;11.974;2023-01-19T13:47:53;8.67;;;4.50;;
9970;SDS011;5026;51.494;11.974;2023-01-19T13:50:24;4.33;;;3.63;;
9970;SDS011;5026;51.494;11.974;2023-01-19T13:52:51;5.17;;;4.10;;
9970;SDS011;5026;51.494;11.974;2023-01-19T13:55:22;8.80;;;4.07;;
9970;SDS011;5026;51.494;11.974;2023-01-19T13:57:50;7.27;;;4.50;;
9970;SDS011;5026;51.494;11.974;2023-01-19T14:00:19;6.27;;;4.23;;
9970;SDS011;5026;51.494;11.974;2023-01-19T14:02:54;6.40;;;4.17;;
9970;SDS011;5026;51.494;11.974;2023-01-19T14:05:24;7.20;;;4.40;;
9970;SDS011;5026;51.494;11.974;2023-01-19T14:08:03;5.80;;;4.10;;
9970;SDS011;5026;51.494;11.974;2023-01-19T14:10:38;7.13;;;4.37;;
9970;SDS011;5026;51.494;11.974;2023-01-19T14:13:12;7.03;;;4.00;;
9970;SDS011;5026;51.494;11.974;2023-01-19T14:15:41;8.17;;;4.03;;
9970;SDS011;5026;51.494;11.974;2023-01-19T14:18:21;7.00;;;4.00;;
9970;SDS011;5026;51.494;11.974;2023-01-19T14:20:51;6.93;;;3.83;;
9970;SDS011;5026;51.494;11.974;2023-01-19T14:23:43;6.23;;;3.80;;
9970;SDS011;5026;51.494;11.974;2023-01-19T14:29:14;6.70;;;3.93;;
9970;SDS011;5026;51.494;11.974;2023-01-19T14:31:43;7.13;;;4.17;;
9970;SDS011;5026;51.494;11.974;2023-01-19T14:34:30;8.37;;;4.43;;
9970;SDS011;5026;51.494;11.974;2023-01-19T14:36:58;4.90;;;3.90;;
9970;SDS011;5026;51.494;11.974;2023-01-19T14:39:26;5.23;;;3.80;;
9970;SDS011;5026;51.494;11.974;2023-01-19T14:41:59;5.53;;;3.90;;
9970;SDS011;5026;51.494;11.974;2023-01-19T14:44:30;7.03;;;4.30;;
9970;SDS011;5026;51.494;11.974;2023-01-19T14:47:00;5.70;;;4.07;;
9970;SDS011;5026;51.494;11.974;2023-01-19T14:49:29;7.33;;;4.63;;
9970;SDS011;5026;51.494;11.974;2023-01-19T14:51:59;7.70;;;4.27;;
9970;SDS011;5026;51.494;11.974;2023-01-19T14:54:28;7.30;;;4.47;;
9970;SDS011;5026;51.494;11.974;2023-01-19T14:57:01;7.47;;;4.27;;
9970;SDS011;5026;51.494;11.974;2023-01-19T14:59:28;4.60;;;3.80;;
9970;SDS011;5026;51.494;11.974;2023-01-19T15:01:55;8.57;;;4.20;;
9970;SDS011;5026;51.494;11.974;2023-01-19T15:04:23;6.73;;;4.43;;
9970;SDS011;5026;51.494;11.974;2023-01-19T15:06:50;4.57;;;3.80;;
9970;SDS011;5026;51.494;11.974;2023-01-19T15:09:17;6.97;;;4.37;;
9970;SDS011;5026;51.494;11.974;2023-01-19T15:11:45;9.77;;;5.27;;
9970;SDS011;5026;51.494;11.974;2023-01-19T15:14:15;6.37;;;4.63;;
9970;SDS011;5026;51.494;11.974;2023-01-19T15:16:44;6.87;;;4.50;;
9970;SDS011;5026;51.494;11.974;2023-01-19T15:19:12;6.27;;;4.60;;
9970;SDS011;5026;51.494;11.974;2023-01-19T15:21:41;6.70;;;4.77;;
9970;SDS011;5026;51.494;11.974;2023-01-19T15:24:10;7.60;;;4.83;;
9970;SDS011;5026;51.494;11.974;2023-01-19T15:26:37;7.87;;;4.47;;
9970;SDS011;5026;51.494;11.974;2023-01-19T15:29:11;7.67;;;4.43;;
9970;SDS011;5026;51.494;11.974;2023-01-19T15:31:43;7.70;;;4.47;;
9970;SDS011;5026;51.494;11.974;2023-01-19T15:34:11;6.47;;;4.30;;
9970;SDS011;5026;51.494;11.974;2023-01-19T15:36:38;9.43;;;5.10;;